createdAt,value
2022-11-05T00:01:51.197Z,69.14
2022-11-05T00:04:37.566Z,68.46
2022-11-05T00:07:27.303Z,69.65
2022-11-05T00:10:00.304Z,69.84
2022-11-05T00:12:46.434Z,70.73
2022-11-05T00:15:32.628Z,69.91
2022-11-05T00:17:59.805Z,68.53
2022-11-05T00:20:27.293Z,68.32
2022-11-05T00:23:22.971Z,67.96
2022-11-05T00:25:56.206Z,66.24
2022-11-05T00:28:23.504Z,66.84
2022-11-05T00:30:51.230Z,68.25
2022-11-05T00:33:18.452Z,68.86
2022-11-05T00:35:45.733Z,67.86
2022-11-05T00:38:13.246Z,70.61
2022-11-05T00:40:40.521Z,69.69
2022-11-05T00:43:26.612Z,68.42
2022-11-05T00:45:54.135Z,71.65
2022-11-05T00:48:40.239Z,70.52
2022-11-05T00:51:07.983Z,69.32
2022-11-05T00:53:35.186Z,68.61
2022-11-05T00:56:02.625Z,67.56
2022-11-05T00:58:30.144Z,68.01
2022-11-05T01:00:57.757Z,69.68
2022-11-05T01:03:26.210Z,70.24
2022-11-05T01:05:54.618Z,67.46
2022-11-05T01:08:22.537Z,69.48
2022-11-05T01:10:51.120Z,67.96
2022-11-05T01:13:20.254Z,67.88
2022-11-05T01:15:48.054Z,70.92
2022-11-05T01:18:15.262Z,69.59
2022-11-05T01:20:42.725Z,68.38
2022-11-05T01:23:13.445Z,68.54
2022-11-05T01:25:44.147Z,68.17
2022-11-05T01:28:11.635Z,71.31
2022-11-05T01:30:38.832Z,72.37
2022-11-05T01:33:06.031Z,69.91
2022-11-05T01:35:33.559Z,70.07
2022-11-05T01:38:00.752Z,71.68
2022-11-05T01:40:27.934Z,72.35
2022-11-05T01:42:55.378Z,72.58
2022-11-05T01:45:23.893Z,73.28
2022-11-05T01:47:51.139Z,70.45
2022-11-05T01:50:21.778Z,68.75
2022-11-05T01:52:49.331Z,69.23
2022-11-05T01:55:17.060Z,71.85
2022-11-05T01:57:44.475Z,70.18
2022-11-05T02:00:11.988Z,69.62
2022-11-05T02:02:40.237Z,71.65
2022-11-05T02:05:10.729Z,72.28
2022-11-05T02:07:37.929Z,71.67
2022-11-05T02:10:08.904Z,73.63
2022-11-05T02:12:36.764Z,73.00
2022-11-05T02:15:04.081Z,74.60
2022-11-05T02:17:37.308Z,74.48
2022-11-05T02:20:07.727Z,73.92
2022-11-05T02:22:52.924Z,73.43
2022-11-05T02:25:32.277Z,73.50
2022-11-05T02:28:07.337Z,74.28
2022-11-05T02:30:34.800Z,73.97
2022-11-05T02:33:01.983Z,73.97
2022-11-05T02:35:31.855Z,74.43
2022-11-05T02:38:13.688Z,73.27
2022-11-05T02:40:50.694Z,75.88
2022-11-05T02:43:38.478Z,73.67
2022-11-05T02:46:26.792Z,75.86
2022-11-05T02:49:03.723Z,75.16
2022-11-05T02:51:51.143Z,73.76
2022-11-05T02:54:21.584Z,75.83
2022-11-05T02:56:49.590Z,74.39
2022-11-05T02:59:16.794Z,74.54
2022-11-05T03:01:44.323Z,75.16
2022-11-05T03:04:12.094Z,74.46
2022-11-05T03:06:42.170Z,73.30
2022-11-05T03:09:09.585Z,74.03
2022-11-05T03:11:40.802Z,74.02
2022-11-05T03:14:37.563Z,72.99
2022-11-05T03:17:23.608Z,73.88
2022-11-05T03:19:54.365Z,73.83
2022-11-05T03:22:23.972Z,70.39
2022-11-05T03:24:52.600Z,73.19
2022-11-05T03:27:20.571Z,71.59
2022-11-05T03:29:49.357Z,71.50
2022-11-05T03:32:16.886Z,69.58
2022-11-05T03:34:47.670Z,70.59
2022-11-05T03:37:15.364Z,68.44
2022-11-05T03:39:43.651Z,69.17
2022-11-05T03:42:11.666Z,69.20
2022-11-05T03:44:39.596Z,68.74
2022-11-05T03:47:08.214Z,70.40
2022-11-05T03:49:36.642Z,70.50
2022-11-05T03:52:15.495Z,70.13
2022-11-05T03:54:42.659Z,70.04
2022-11-05T03:57:14.914Z,72.43
2022-11-05T03:59:43.222Z,72.08
2022-11-05T04:02:11.556Z,69.86
2022-11-05T04:04:39.321Z,70.76
2022-11-05T04:07:25.395Z,71.15
2022-11-05T04:10:11.731Z,70.34
2022-11-05T04:12:57.416Z,71.50
2022-11-05T04:15:24.958Z,71.65
2022-11-05T04:17:52.117Z,68.48
2022-11-05T04:20:38.036Z,69.59
2022-11-05T04:23:24.932Z,69.45
2022-11-05T04:25:52.130Z,70.57
2022-11-05T04:28:19.614Z,69.98
2022-11-05T04:30:46.807Z,71.77
2022-11-05T04:33:15.349Z,71.72
2022-11-05T04:35:43.801Z,72.24
2022-11-05T04:38:12.075Z,71.76
2022-11-05T04:40:39.243Z,73.49
2022-11-05T04:43:13.656Z,69.65
2022-11-05T04:45:42.286Z,72.23
2022-11-05T04:48:09.960Z,71.79
2022-11-05T04:50:37.208Z,70.86
2022-11-05T04:53:04.365Z,70.52
2022-11-05T04:55:31.796Z,70.35
2022-11-05T04:57:59.048Z,72.57
2022-11-05T05:00:26.238Z,70.41
2022-11-05T05:02:53.719Z,69.75
2022-11-05T05:05:22.580Z,73.43
2022-11-05T05:07:49.787Z,70.29
2022-11-05T05:10:17.441Z,70.86
2022-11-05T05:12:44.617Z,73.06
2022-11-05T05:15:11.821Z,71.42
2022-11-05T05:17:39.289Z,68.51
2022-11-05T05:20:25.135Z,68.27
2022-11-05T05:22:55.559Z,68.14
2022-11-05T05:25:22.870Z,67.87
2022-11-05T05:27:50.104Z,70.08
2022-11-05T05:30:17.593Z,70.17
2022-11-05T05:32:44.856Z,68.10
2022-11-05T05:35:12.055Z,67.30
2022-11-05T05:37:39.487Z,67.72
2022-11-05T05:40:06.946Z,68.46
2022-11-05T05:42:37.569Z,70.21
2022-11-05T05:45:09.456Z,68.48
2022-11-05T05:47:36.634Z,70.32
2022-11-05T05:50:04.077Z,68.87
2022-11-05T05:52:31.583Z,68.51
2022-11-05T05:54:58.788Z,69.14
2022-11-05T05:57:25.983Z,69.27
2022-11-05T05:59:53.411Z,67.67
2022-11-05T06:02:20.663Z,67.49
2022-11-05T06:04:48.274Z,68.70
2022-11-05T06:07:15.488Z,68.45
2022-11-05T06:09:42.637Z,67.95
2022-11-05T06:12:10.102Z,69.92
2022-11-05T06:14:37.247Z,68.72
2022-11-05T06:17:04.441Z,68.67
2022-11-05T06:19:31.943Z,68.05
2022-11-05T06:21:59.109Z,67.46
2022-11-05T06:24:26.245Z,66.64
2022-11-05T06:26:53.725Z,67.20
2022-11-05T06:29:20.939Z,68.74
2022-11-05T06:31:48.150Z,70.49
2022-11-05T06:34:15.584Z,69.03
2022-11-05T06:36:42.755Z,67.60
2022-11-05T06:39:10.391Z,68.01
2022-11-05T06:41:56.990Z,67.33
2022-11-05T06:44:25.008Z,67.40
2022-11-05T06:46:52.486Z,66.53
2022-11-05T06:49:19.688Z,66.77
2022-11-05T06:51:46.915Z,66.16
2022-11-05T06:54:14.425Z,66.53
2022-11-05T06:56:41.663Z,66.88
2022-11-05T06:59:08.866Z,66.93
2022-11-05T07:01:37.463Z,67.43
2022-11-05T07:04:04.722Z,68.22
2022-11-05T07:06:36.848Z,69.81
2022-11-05T07:09:04.673Z,67.38
2022-11-05T07:11:31.875Z,67.10
2022-11-05T07:13:59.244Z,65.37
2022-11-05T07:16:26.744Z,67.96
2022-11-05T07:18:55.887Z,65.81
2022-11-05T07:21:23.157Z,65.06
2022-11-05T07:23:50.663Z,67.18
2022-11-05T07:26:17.856Z,69.11
2022-11-05T07:28:45.408Z,68.08
2022-11-05T07:31:12.885Z,66.33
2022-11-05T07:33:40.102Z,66.82
2022-11-05T07:36:07.474Z,67.50
2022-11-05T07:38:34.936Z,66.33
2022-11-05T07:41:02.141Z,64.82
2022-11-05T07:43:29.313Z,63.87
2022-11-05T07:45:56.804Z,66.49
2022-11-05T07:48:24.101Z,65.52
2022-11-05T07:50:51.697Z,66.21
2022-11-05T07:53:20.709Z,66.20
2022-11-05T07:55:47.974Z,67.48
2022-11-05T07:58:15.176Z,65.15
2022-11-05T08:00:42.879Z,65.63
2022-11-05T08:03:12.272Z,66.55
2022-11-05T08:05:40.506Z,65.58
2022-11-05T08:08:08.396Z,65.96
2022-11-05T08:10:36.259Z,64.49
2022-11-05T08:13:03.944Z,66.13
2022-11-05T08:15:31.106Z,65.21
2022-11-05T08:17:59.345Z,64.29
2022-11-05T08:20:26.746Z,64.87
2022-11-05T08:22:54.809Z,65.25
2022-11-05T08:25:22.363Z,65.76
2022-11-05T08:27:55.111Z,65.85
2022-11-05T08:30:22.626Z,64.70
2022-11-05T08:32:49.892Z,64.51
2022-11-05T08:35:17.176Z,65.24
2022-11-05T08:37:44.596Z,64.73
2022-11-05T08:40:11.993Z,65.72
2022-11-05T08:42:39.275Z,66.72
2022-11-05T08:45:07.109Z,65.99
2022-11-05T08:47:34.318Z,68.66
2022-11-05T08:50:01.641Z,67.30
2022-11-05T08:52:29.133Z,66.98
2022-11-05T08:54:56.332Z,66.51
2022-11-05T08:57:23.645Z,66.87
2022-11-05T08:59:51.135Z,65.38
2022-11-05T09:02:18.482Z,66.27
2022-11-05T09:04:45.834Z,64.98
2022-11-05T09:07:13.330Z,65.00
2022-11-05T09:09:40.515Z,66.77
2022-11-05T09:12:12.656Z,67.07
2022-11-05T09:14:40.661Z,66.47
2022-11-05T09:17:15.992Z,64.20
2022-11-05T09:19:43.402Z,66.92
2022-11-05T09:22:12.758Z,65.22
2022-11-05T09:24:40.417Z,67.15
2022-11-05T09:27:11.906Z,66.00
2022-11-05T09:29:39.627Z,66.18
2022-11-05T09:32:06.971Z,66.08
2022-11-05T09:34:34.678Z,64.21
2022-11-05T09:37:01.896Z,66.02
2022-11-05T09:39:29.140Z,65.57
2022-11-05T09:41:57.723Z,67.46
2022-11-05T09:44:26.209Z,66.62
2022-11-05T09:46:54.767Z,65.67
2022-11-05T09:49:42.539Z,64.62
2022-11-05T09:52:33.133Z,64.23
2022-11-05T09:55:00.754Z,64.57
2022-11-05T09:57:28.876Z,66.37
2022-11-05T09:59:57.358Z,64.84
2022-11-05T10:02:29.763Z,65.23
2022-11-05T10:05:01.485Z,65.32
2022-11-05T10:07:31.389Z,63.69
2022-11-05T10:09:59.756Z,65.33
2022-11-05T10:12:39.220Z,61.49
2022-11-05T10:15:06.798Z,64.39
2022-11-05T10:17:39.067Z,64.02
2022-11-05T10:20:06.812Z,64.14
2022-11-05T10:22:34.040Z,62.54
2022-11-05T10:25:01.236Z,64.40
2022-11-05T10:27:28.752Z,60.57
2022-11-05T10:29:56.139Z,60.75
2022-11-05T10:32:23.306Z,61.67
2022-11-05T10:34:50.791Z,62.76
2022-11-05T10:37:17.993Z,60.99
2022-11-05T10:39:45.241Z,63.20
2022-11-05T10:42:18.439Z,60.84
2022-11-05T10:44:57.952Z,62.19
2022-11-05T10:47:37.503Z,61.47
2022-11-05T10:50:16.785Z,60.81
2022-11-05T10:52:56.087Z,61.39
2022-11-05T10:55:25.349Z,60.31
2022-11-05T10:57:53.069Z,60.92
2022-11-05T11:00:24.426Z,60.14
2022-11-05T11:02:59.096Z,63.04
2022-11-05T11:05:27.932Z,63.18
2022-11-05T11:08:10.447Z,62.34
2022-11-05T11:10:42.683Z,61.23
2022-11-05T11:13:20.602Z,62.79
2022-11-05T11:15:50.808Z,63.70
2022-11-05T11:18:34.669Z,62.34
2022-11-05T11:21:07.599Z,62.04
2022-11-05T11:23:38.805Z,62.46
2022-11-05T11:26:06.092Z,62.04
2022-11-05T11:28:35.239Z,61.55
2022-11-05T11:31:09.928Z,61.43
2022-11-05T11:33:37.673Z,62.44
2022-11-05T11:36:05.382Z,60.68
2022-11-05T11:38:34.101Z,61.76
2022-11-05T11:41:24.963Z,61.18
2022-11-05T11:44:03.051Z,61.90
2022-11-05T11:46:31.912Z,61.88
2022-11-05T11:48:59.163Z,60.88
2022-11-05T11:51:36.649Z,62.74
2022-11-05T11:54:04.625Z,61.12
2022-11-05T11:56:43.164Z,62.11
2022-11-05T11:59:19.753Z,61.02
2022-11-05T12:01:54.004Z,61.07
2022-11-05T12:04:38.587Z,62.36
2022-11-05T12:07:24.365Z,62.00
2022-11-05T12:09:55.057Z,63.09
2022-11-05T12:12:24.751Z,63.90
2022-11-05T12:15:00.652Z,61.89
2022-11-05T12:17:30.915Z,61.35
2022-11-05T12:20:01.821Z,60.32
2022-11-05T12:22:31.244Z,61.74
2022-11-05T12:25:17.549Z,62.15
2022-11-05T12:27:44.736Z,62.14
2022-11-05T12:30:14.352Z,61.40
2022-11-05T12:32:49.577Z,60.72
2022-11-05T12:35:35.899Z,61.65
2022-11-05T12:38:09.735Z,62.96
2022-11-05T12:40:37.295Z,60.67
2022-11-05T12:43:16.613Z,60.17
2022-11-05T12:45:51.230Z,61.65
2022-11-05T12:48:37.497Z,61.71
2022-11-05T12:51:10.747Z,60.67
2022-11-05T12:54:04.372Z,59.48
2022-11-05T12:56:36.944Z,61.11
2022-11-05T12:59:13.015Z,60.70
2022-11-05T13:01:41.991Z,60.91
2022-11-05T13:04:14.801Z,60.31
2022-11-05T13:06:42.890Z,59.54
2022-11-05T13:09:15.466Z,61.93
2022-11-05T13:11:43.034Z,59.96
2022-11-05T13:14:18.010Z,60.13
2022-11-05T13:17:02.595Z,62.77
2022-11-05T13:19:32.323Z,61.93
2022-11-05T13:22:00.970Z,62.50
2022-11-05T13:24:28.907Z,60.07
2022-11-05T13:27:01.168Z,60.61
2022-11-05T13:29:31.640Z,60.67
2022-11-05T13:32:38.159Z,60.46
2022-11-05T13:35:07.503Z,62.46
2022-11-05T13:37:55.041Z,60.05
2022-11-05T13:40:24.962Z,61.52
2022-11-05T13:43:11.057Z,61.54
2022-11-05T13:46:02.842Z,62.61
2022-11-05T13:48:51.710Z,62.17
2022-11-05T13:51:19.514Z,63.03
2022-11-05T13:54:05.604Z,62.04
2022-11-05T13:56:36.416Z,61.67
2022-11-05T13:59:06.857Z,62.16
2022-11-05T14:01:37.756Z,63.13
2022-11-05T14:04:05.303Z,62.57
2022-11-05T14:06:33.760Z,64.15
2022-11-05T14:09:03.144Z,63.60
2022-11-05T14:11:31.713Z,62.66
2022-11-05T14:14:01.736Z,64.83
2022-11-05T14:16:40.460Z,62.81
2022-11-05T14:19:20.258Z,62.43
2022-11-05T14:21:48.471Z,60.57
2022-11-05T14:24:19.596Z,60.18
2022-11-05T14:27:01.969Z,62.16
2022-11-05T14:29:38.353Z,63.45
2022-11-05T14:32:18.627Z,63.42
2022-11-05T14:34:49.165Z,62.13
2022-11-05T14:37:37.122Z,65.34
2022-11-05T14:40:24.883Z,64.18
2022-11-05T14:42:53.392Z,64.20
2022-11-05T14:45:23.399Z,62.71
2022-11-05T14:47:54.668Z,61.95
2022-11-05T14:50:25.932Z,63.04
2022-11-05T14:52:54.234Z,61.77
2022-11-05T14:55:35.399Z,62.29
2022-11-05T14:58:04.575Z,62.05
2022-11-05T15:00:34.127Z,62.04
2022-11-05T15:03:02.490Z,62.21
2022-11-05T15:05:38.075Z,63.24
2022-11-05T15:08:26.882Z,61.86
2022-11-05T15:10:54.757Z,61.66
2022-11-05T15:13:30.688Z,63.71
2022-11-05T15:15:59.091Z,62.09
2022-11-05T15:18:30.579Z,62.43
2022-11-05T15:20:58.722Z,62.86
2022-11-05T15:23:27.033Z,62.86
2022-11-05T15:26:06.158Z,63.14
2022-11-05T15:28:41.644Z,63.59
2022-11-05T15:31:13.223Z,62.52
2022-11-05T15:33:44.753Z,63.71
2022-11-05T15:36:31.516Z,64.37
2022-11-05T15:41:46.607Z,62.45
2022-11-05T15:44:23.347Z,61.67
2022-11-05T15:47:24.485Z,62.71
2022-11-05T15:49:53.423Z,63.59
2022-11-05T15:52:31.378Z,63.18
2022-11-05T15:55:14.127Z,64.09
2022-11-05T15:57:50.269Z,66.59
2022-11-05T16:00:22.436Z,66.33
2022-11-05T16:02:54.725Z,65.82
2022-11-05T16:05:22.068Z,65.78
2022-11-05T16:07:49.802Z,65.04
2022-11-05T16:10:24.063Z,62.90
2022-11-05T16:12:51.687Z,64.70
2022-11-05T16:15:23.783Z,65.02
2022-11-05T16:17:58.023Z,64.60
2022-11-05T16:20:28.736Z,65.08
2022-11-05T16:23:19.023Z,63.92
2022-11-05T16:25:47.257Z,65.48
2022-11-05T16:28:24.679Z,65.65
2022-11-05T16:30:59.607Z,66.57
2022-11-05T16:33:31.091Z,67.35
2022-11-05T16:35:58.568Z,67.59
2022-11-05T16:38:25.786Z,67.84
2022-11-05T16:40:53.162Z,68.57
2022-11-05T16:43:21.933Z,66.43
2022-11-05T16:45:49.594Z,66.74
2022-11-05T16:48:17.116Z,66.20
2022-11-05T16:50:44.870Z,64.13
2022-11-05T16:53:12.497Z,63.72
2022-11-05T16:55:40.328Z,64.85
2022-11-05T16:58:25.264Z,63.84
2022-11-05T17:00:53.084Z,65.08
2022-11-05T17:03:20.760Z,64.67
2022-11-05T17:05:48.181Z,65.05
2022-11-05T17:08:15.777Z,63.38
2022-11-05T17:10:43.629Z,64.18
2022-11-05T17:13:17.417Z,63.88
2022-11-05T17:15:46.025Z,67.37
2022-11-05T17:18:18.210Z,64.29
2022-11-05T17:20:50.900Z,65.79
2022-11-05T17:23:19.356Z,64.93
2022-11-05T17:26:03.198Z,64.12
2022-11-05T17:28:30.714Z,68.26
2022-11-05T17:31:02.207Z,66.71
2022-11-05T17:33:29.529Z,65.72
2022-11-05T17:35:56.933Z,66.45
2022-11-05T17:38:25.086Z,69.14
2022-11-05T17:40:52.387Z,66.04
2022-11-05T17:43:20.251Z,68.08
2022-11-05T17:45:49.251Z,66.99
2022-11-05T17:48:16.933Z,65.21
2022-11-05T17:50:45.373Z,66.75
2022-11-05T17:53:13.714Z,67.14
2022-11-05T17:55:41.928Z,66.11
2022-11-05T17:58:10.018Z,65.28
2022-11-05T18:00:37.852Z,66.00
2022-11-05T18:03:05.613Z,66.26
2022-11-05T18:05:33.932Z,67.66
2022-11-05T18:08:01.501Z,66.64
2022-11-05T18:10:29.264Z,69.06
2022-11-05T18:12:56.707Z,67.72
2022-11-05T18:15:24.088Z,65.17
2022-11-05T18:17:52.154Z,64.47
2022-11-05T18:20:19.852Z,64.80
2022-11-05T18:22:48.872Z,64.36
2022-11-05T18:25:16.773Z,64.92
2022-11-05T18:27:44.516Z,63.39
2022-11-05T18:30:14.087Z,64.45
2022-11-05T18:32:42.450Z,65.98
2022-11-05T18:35:10.030Z,66.96
2022-11-05T18:37:38.564Z,66.19
2022-11-05T18:40:07.037Z,64.74
2022-11-05T18:42:34.447Z,65.53
2022-11-05T18:45:01.718Z,64.54
2022-11-05T18:47:29.443Z,64.05
2022-11-05T18:49:56.883Z,64.00
2022-11-05T18:52:25.939Z,63.99
2022-11-05T18:54:53.969Z,63.31
2022-11-05T18:57:21.569Z,63.88
2022-11-05T18:59:49.112Z,63.74
2022-11-05T19:02:17.408Z,63.43
2022-11-05T19:05:00.666Z,63.39
2022-11-05T19:07:35.555Z,64.53
2022-11-05T19:10:02.955Z,65.06
2022-11-05T19:12:30.412Z,63.68
2022-11-05T19:15:02.397Z,63.85
2022-11-05T19:17:31.891Z,64.66
2022-11-05T19:20:00.730Z,64.32
2022-11-05T19:22:28.233Z,63.77
2022-11-05T19:24:56.008Z,63.74
2022-11-05T19:27:23.783Z,64.90
2022-11-05T19:29:51.237Z,65.79
2022-11-05T19:32:18.620Z,66.13
2022-11-05T19:34:46.370Z,66.01
2022-11-05T19:37:13.784Z,64.79
2022-11-05T19:39:41.321Z,64.68
2022-11-05T19:42:09.004Z,64.37
2022-11-05T19:44:36.497Z,64.62
2022-11-05T19:47:03.855Z,64.39
2022-11-05T19:49:31.527Z,66.83
2022-11-05T19:51:58.962Z,65.06
2022-11-05T19:54:26.347Z,65.65
2022-11-05T19:56:54.107Z,65.38
2022-11-05T19:59:21.388Z,68.17
2022-11-05T20:01:48.899Z,66.34
2022-11-05T20:04:16.739Z,66.83
2022-11-05T20:06:44.545Z,66.65
2022-11-05T20:09:22.592Z,66.42
2022-11-05T20:11:51.188Z,67.82
2022-11-05T20:14:19.725Z,70.39
2022-11-05T20:16:47.176Z,67.67
2022-11-05T20:19:15.651Z,69.67
2022-11-05T20:21:42.996Z,69.23
2022-11-05T20:24:18.814Z,68.08
2022-11-05T20:26:51.371Z,69.63
2022-11-05T20:29:18.811Z,67.49
2022-11-05T20:31:46.157Z,68.98
2022-11-05T20:34:13.790Z,68.83
2022-11-05T20:36:41.526Z,68.85
2022-11-05T20:39:10.060Z,68.75
2022-11-05T20:41:37.896Z,67.77
2022-11-05T20:44:05.217Z,67.77
2022-11-05T20:46:33.112Z,67.04
2022-11-05T20:49:00.815Z,66.09
2022-11-05T20:51:28.231Z,66.21
2022-11-05T20:53:56.361Z,66.53
2022-11-05T20:56:24.825Z,65.93
2022-11-05T20:58:52.715Z,67.30
2022-11-05T21:01:21.327Z,68.24
2022-11-05T21:03:49.298Z,66.91
2022-11-05T21:06:16.911Z,66.88
2022-11-05T21:08:46.316Z,66.89
2022-11-05T21:11:13.971Z,66.76
2022-11-05T21:13:41.721Z,68.46
2022-11-05T21:16:14.040Z,66.65
2022-11-05T21:18:44.426Z,66.51
2022-11-05T21:21:13.317Z,67.02
2022-11-05T21:23:41.801Z,67.01
2022-11-05T21:26:10.903Z,67.95
2022-11-05T21:28:39.242Z,66.88
2022-11-05T21:31:07.120Z,65.56
2022-11-05T21:33:35.011Z,65.55
2022-11-05T21:36:06.590Z,66.50
2022-11-05T21:38:34.111Z,68.10
2022-11-05T21:41:02.877Z,66.88
2022-11-05T21:43:30.394Z,66.64
2022-11-05T21:46:00.524Z,66.47
2022-11-05T21:48:28.091Z,67.96
2022-11-05T21:51:14.180Z,66.75
2022-11-05T21:54:00.315Z,66.40
2022-11-05T21:56:46.415Z,65.19
2022-11-05T21:59:33.651Z,65.32
2022-11-05T22:02:03.811Z,65.44
2022-11-05T22:04:33.035Z,66.46
2022-11-05T22:07:00.345Z,65.30
2022-11-05T22:09:28.070Z,65.54
2022-11-05T22:11:55.666Z,65.03
2022-11-05T22:14:23.466Z,65.00
2022-11-05T22:16:50.752Z,66.18
2022-11-05T22:19:18.342Z,65.03
2022-11-05T22:21:45.719Z,64.95
2022-11-05T22:24:12.933Z,64.59
2022-11-05T22:26:40.857Z,64.73
2022-11-05T22:29:08.049Z,65.81
2022-11-05T22:31:36.657Z,65.61
2022-11-05T22:34:05.046Z,65.72
2022-11-05T22:36:32.636Z,64.38
2022-11-05T22:38:59.845Z,64.59
2022-11-05T22:41:27.374Z,65.06
2022-11-05T22:43:54.686Z,65.77
2022-11-05T22:46:23.882Z,66.64
2022-11-05T22:48:51.685Z,65.83
2022-11-05T22:51:20.000Z,65.27
2022-11-05T22:53:47.374Z,64.51
2022-11-05T22:56:15.827Z,64.00
2022-11-05T22:58:43.879Z,64.11
2022-11-05T23:01:11.853Z,65.41
2022-11-05T23:03:40.197Z,64.80
2022-11-05T23:06:28.278Z,63.91
2022-11-05T23:09:14.645Z,66.41
2022-11-05T23:11:42.190Z,66.94
2022-11-05T23:14:10.863Z,66.48
2022-11-05T23:16:56.730Z,64.99
2022-11-05T23:19:43.095Z,66.23
2022-11-05T23:22:33.019Z,65.90
2022-11-05T23:25:00.628Z,65.62
2022-11-05T23:27:31.647Z,67.43
2022-11-05T23:29:59.211Z,65.94
2022-11-05T23:32:28.199Z,65.50
2022-11-05T23:34:56.631Z,65.79
2022-11-05T23:37:43.035Z,65.12
2022-11-05T23:40:12.213Z,64.95
2022-11-05T23:42:58.043Z,65.36
2022-11-05T23:45:44.238Z,64.57
2022-11-05T23:48:20.582Z,63.80
2022-11-05T23:50:50.926Z,64.07
2022-11-05T23:53:18.313Z,64.24
2022-11-05T23:55:45.712Z,63.83
2022-11-05T23:58:13.451Z,64.36
